createdAt,value
2019-01-19T00:03:02.180Z,100274.37
2019-01-19T00:05:29.808Z,100274.37
2019-01-19T00:07:57.930Z,100279.09
2019-01-19T00:10:25.575Z,100276.89
2019-01-19T00:12:53.325Z,100276.89
2019-01-19T00:15:21.431Z,100277.36
2019-01-19T00:21:13.170Z,100275.55
2019-01-19T00:23:59.947Z,100271.77
2019-01-19T00:26:27.940Z,100274.59
2019-01-19T00:29:14.739Z,100276.91
2019-01-19T00:31:42.379Z,100276.91
2019-01-19T00:34:33.970Z,100274.54
2019-01-19T00:36:58.645Z,100274.54
2019-01-19T00:45:25.342Z,100277.05
2019-01-19T00:47:53.353Z,100267.45
2019-01-19T00:50:21.063Z,100273.95
2019-01-19T00:52:49.162Z,100273.95
2019-01-19T00:55:17.901Z,100274.45
2019-01-19T00:57:45.708Z,100261.84
2019-01-19T01:00:32.520Z,100270.08
2019-01-19T01:03:00.156Z,100270.08
2019-01-19T01:05:30.297Z,100268.28
2019-01-19T01:07:57.932Z,100265.24
2019-01-19T01:10:25.979Z,100260.46
2019-01-19T01:12:53.656Z,100260.46
2019-01-19T01:15:21.390Z,100266.12
2019-01-19T01:17:49.197Z,100262.56
2019-01-19T01:20:17.319Z,100261.72
2019-01-19T01:22:45.075Z,100261.25
2019-01-19T01:25:12.920Z,100261.25
2019-01-19T01:27:40.621Z,100260.01
2019-01-19T01:30:27.102Z,100263.51
2019-01-19T01:32:54.820Z,100263.51
2019-01-19T01:40:43.311Z,100250.42
2019-01-19T01:43:10.943Z,100256.89
2019-01-19T01:45:38.694Z,100256.89
2019-01-19T01:48:25.179Z,100254.45
2019-01-19T01:50:52.955Z,100254.45
2019-01-19T01:53:20.602Z,100249.86
2019-01-19T01:55:48.282Z,100245.42
2019-01-19T01:58:16.322Z,100245.42
2019-01-19T02:00:43.945Z,100248.41
2019-01-19T02:03:11.672Z,100244.45
2019-01-19T02:05:40.321Z,100246.16
2019-01-19T02:08:09.272Z,100251.69
2019-01-19T02:10:37.014Z,100250.34
2019-01-19T02:13:04.681Z,100249.84
2019-01-19T02:15:33.303Z,100250.22
2019-01-19T02:18:00.929Z,100244.98
2019-01-19T02:20:28.662Z,100247.53
2019-01-19T02:22:56.326Z,100243.16
2019-01-19T02:25:42.829Z,100243.16
2019-01-19T02:28:10.554Z,100239.38
2019-01-19T02:30:57.298Z,100240.22
2019-01-19T02:33:25.099Z,100237.70
2019-01-19T02:36:11.929Z,100230.37
2019-01-19T02:38:39.574Z,100230.37
2019-01-19T02:41:07.318Z,100229.59
2019-01-19T02:43:34.993Z,100220.11
2019-01-19T02:46:03.125Z,100222.72
2019-01-19T02:48:30.790Z,100218.83
2019-01-19T02:50:58.485Z,100216.74
2019-01-19T02:53:26.160Z,100219.95
2019-01-19T02:56:12.765Z,100209.64
2019-01-19T02:58:59.286Z,100210.59
2019-01-19T03:01:26.990Z,100210.59
2019-01-19T03:03:54.892Z,100219.48
2019-01-19T03:06:22.643Z,100219.48
2019-01-19T03:08:50.382Z,100198.81
2019-01-19T03:11:18.024Z,100212.22
2019-01-19T03:14:04.580Z,100210.55
2019-01-19T03:16:32.595Z,100210.55
2019-01-19T03:19:00.260Z,100204.43
2019-01-19T03:21:46.776Z,100204.54
2019-01-19T03:24:14.595Z,100201.64
2019-01-19T03:27:04.055Z,100194.31
2019-01-19T03:29:31.752Z,100193.50
2019-01-19T03:31:59.425Z,100199.73
2019-01-19T03:34:46.206Z,100202.66
2019-01-19T03:37:13.850Z,100196.67
2019-01-19T03:39:41.656Z,100197.16
2019-01-19T03:42:28.423Z,100196.36
2019-01-19T03:44:56.218Z,100197.75
2019-01-19T03:47:23.953Z,100197.75
2019-01-19T03:50:10.733Z,100198.77
2019-01-19T03:52:38.401Z,100190.55
2019-01-19T03:55:06.114Z,100185.84
2019-01-19T03:57:33.851Z,100188.50
2019-01-19T04:00:20.394Z,100187.70
2019-01-19T04:03:07.911Z,100185.20
2019-01-19T04:05:35.584Z,100185.20
2019-01-19T04:08:03.654Z,100181.84
2019-01-19T04:10:33.706Z,100181.84
2019-01-19T04:13:00.655Z,100183.60
2019-01-19T04:15:28.423Z,100181.91
2019-01-19T04:17:56.470Z,100181.91
2019-01-19T04:20:43.458Z,100176.37
2019-01-19T04:23:11.219Z,100176.37
2019-01-19T04:25:57.768Z,100170.73
2019-01-19T04:28:27.166Z,100170.30
2019-01-19T04:30:54.880Z,100175.50
2019-01-19T04:33:41.353Z,100172.13
2019-01-19T04:39:02.403Z,100161.31
2019-01-19T04:41:48.916Z,100162.73
2019-01-19T04:44:16.587Z,100163.72
2019-01-19T04:46:44.670Z,100163.72
2019-01-19T04:49:12.574Z,100156.54
2019-01-19T04:51:40.289Z,100165.31
2019-01-19T04:54:07.950Z,100162.80
2019-01-19T04:56:54.496Z,100154.61
2019-01-19T04:59:25.283Z,100157.70
2019-01-19T05:01:57.113Z,100158.61
2019-01-19T05:04:25.192Z,100158.61
2019-01-19T05:06:52.884Z,100155.13
2019-01-19T05:09:20.547Z,100151.28
2019-01-19T05:11:48.229Z,100146.94
2019-01-19T05:14:34.689Z,100151.33
2019-01-19T05:17:02.517Z,100144.01
2019-01-19T05:19:30.229Z,100144.03
2019-01-19T05:21:59.243Z,100141.89
2019-01-19T05:24:26.958Z,100141.89
2019-01-19T05:26:54.599Z,100141.03
2019-01-19T05:29:22.304Z,100140.62
2019-01-19T05:32:08.743Z,100138.51
2019-01-19T05:37:11.191Z,100135.18
2019-01-19T05:39:57.730Z,100138.64
2019-01-19T05:42:44.221Z,100140.42
2019-01-19T05:45:11.945Z,100140.42
2019-01-19T05:47:39.941Z,100133.08
2019-01-19T05:50:07.634Z,100135.63
2019-01-19T05:52:35.316Z,100135.63
2019-01-19T05:55:03.067Z,100132.53
2019-01-19T05:57:49.604Z,100131.20
2019-01-19T06:00:17.344Z,100138.48
2019-01-19T06:03:03.875Z,100138.00
2019-01-19T06:05:31.598Z,100138.00
2019-01-19T06:07:59.400Z,100139.64
2019-01-19T06:10:27.367Z,100139.60
2019-01-19T06:13:13.929Z,100128.71
2019-01-19T06:15:41.630Z,100128.71
2019-01-19T06:18:09.574Z,100130.40
2019-01-19T06:20:37.291Z,100132.98
2019-01-19T06:23:05.013Z,100127.72
2019-01-19T06:25:51.759Z,100129.39
2019-01-19T06:28:19.484Z,100130.67
2019-01-19T06:30:47.190Z,100130.20
2019-01-19T06:33:35.948Z,100130.20
2019-01-19T06:38:56.083Z,100117.20
2019-01-19T06:41:23.715Z,100117.20
2019-01-19T06:44:10.567Z,100113.38
2019-01-19T06:46:38.287Z,100130.16
2019-01-19T06:49:08.032Z,100126.69
2019-01-19T06:51:54.785Z,100127.99
2019-01-19T06:54:22.680Z,100124.11
2019-01-19T06:56:50.293Z,100124.11
2019-01-19T06:59:18.057Z,100131.91
2019-01-19T07:02:04.565Z,100130.67
2019-01-19T07:04:32.205Z,100134.98
2019-01-19T07:07:02.861Z,100122.41
2019-01-19T07:09:29.615Z,100130.59
2019-01-19T07:12:16.139Z,100131.89
2019-01-19T07:15:02.588Z,100131.00
2019-01-19T07:17:30.295Z,100131.00
2019-01-19T07:20:16.802Z,100135.72
2019-01-19T07:22:44.484Z,100138.30
2019-01-19T07:25:30.957Z,100143.02
2019-01-19T07:28:17.499Z,100142.92
2019-01-19T07:31:10.900Z,100147.67
2019-01-19T07:33:38.640Z,100146.32
2019-01-19T07:36:06.742Z,100146.32
2019-01-19T07:38:34.472Z,100147.17
2019-01-19T07:41:02.196Z,100147.17
2019-01-19T07:46:06.270Z,100148.30
2019-01-19T07:48:33.925Z,100148.30
2019-01-19T07:51:05.246Z,100147.81
2019-01-19T07:56:06.131Z,100149.73
2019-01-19T07:58:34.047Z,100149.73
2019-01-19T08:01:01.809Z,100154.27
2019-01-19T08:03:29.455Z,100152.81
2019-01-19T08:06:15.977Z,100147.91
2019-01-19T08:08:43.633Z,100147.91
2019-01-19T08:11:11.452Z,100150.29
2019-01-19T08:13:39.606Z,100154.03
2019-01-19T08:16:07.288Z,100152.63
2019-01-19T08:18:35.372Z,100152.63
2019-01-19T08:21:03.523Z,100155.47
2019-01-19T08:23:31.343Z,100153.33
2019-01-19T08:25:59.339Z,100148.76
2019-01-19T08:28:27.346Z,100148.76
2019-01-19T08:30:54.989Z,100157.41
2019-01-19T08:33:22.699Z,100157.41
2019-01-19T08:35:52.163Z,100149.66
2019-01-19T08:38:19.763Z,100149.66
2019-01-19T08:43:56.982Z,100142.91
2019-01-19T08:46:24.712Z,100147.25
2019-01-19T08:48:54.977Z,100139.33
2019-01-19T08:51:24.683Z,100134.67
2019-01-19T08:53:53.641Z,100136.34
2019-01-19T08:56:21.842Z,100136.34
2019-01-19T08:58:49.855Z,100137.45
2019-01-19T09:01:17.601Z,100132.53
2019-01-19T09:03:45.665Z,100132.53
2019-01-19T09:06:13.343Z,100132.14
2019-01-19T09:08:40.995Z,100120.45
2019-01-19T09:11:08.753Z,100133.02
2019-01-19T09:13:36.427Z,100133.02
2019-01-19T09:16:04.959Z,100126.55
2019-01-19T09:18:32.650Z,100134.75
2019-01-19T09:21:03.308Z,100130.68
2019-01-19T09:23:52.798Z,100130.68
2019-01-19T09:26:23.115Z,100118.09
2019-01-19T09:28:51.730Z,100120.47
2019-01-19T09:31:21.132Z,100120.98
2019-01-19T09:33:55.341Z,100120.98
2019-01-19T09:36:25.167Z,100125.58
2019-01-19T09:41:26.591Z,100131.40
2019-01-19T09:43:54.527Z,100131.40
2019-01-19T09:46:22.284Z,100124.31
2019-01-19T09:48:49.921Z,100124.31
2019-01-19T09:51:18.632Z,100129.70
2019-01-19T09:53:47.146Z,100120.86
2019-01-19T09:56:18.594Z,100128.95
2019-01-19T09:58:44.782Z,100128.95
2019-01-19T10:01:12.430Z,100117.73
2019-01-19T10:04:00.297Z,100115.97
2019-01-19T10:06:28.263Z,100115.97
2019-01-19T10:08:56.030Z,100113.74
2019-01-19T10:11:23.737Z,100114.17
2019-01-19T10:13:53.705Z,100117.14
2019-01-19T10:16:21.370Z,100113.70
2019-01-19T10:18:49.343Z,100100.93
2019-01-19T10:21:35.873Z,100097.73
2019-01-19T10:24:03.677Z,100098.11
2019-01-19T10:26:31.308Z,100098.11
2019-01-19T10:28:59.534Z,100090.59
2019-01-19T10:31:27.307Z,100090.59
2019-01-19T10:33:54.988Z,100078.58
2019-01-19T10:36:23.103Z,100078.58
2019-01-19T10:38:53.211Z,100075.59
2019-01-19T10:41:20.873Z,100069.56
2019-01-19T10:44:06.487Z,100061.11
2019-01-19T10:46:26.435Z,100061.11
2019-01-19T10:48:54.190Z,100044.50
2019-01-19T10:51:22.405Z,100042.84
2019-01-19T10:53:50.141Z,100031.52
2019-01-19T10:56:17.869Z,100031.52
2019-01-19T10:58:48.347Z,100024.68
2019-01-19T11:01:16.464Z,100022.16
2019-01-19T11:03:47.050Z,100022.53
2019-01-19T11:06:20.320Z,100013.08
2019-01-19T11:08:48.061Z,100013.89
2019-01-19T11:11:16.051Z,100009.49
2019-01-19T11:13:43.735Z,100009.49
2019-01-19T11:16:13.308Z,100008.66
2019-01-19T11:18:40.970Z,100005.99
2019-01-19T11:21:10.661Z,99998.64
2019-01-19T11:23:39.893Z,99994.53
2019-01-19T11:26:07.952Z,99994.13
2019-01-19T11:28:35.923Z,99994.13
2019-01-19T11:31:03.651Z,99993.22
2019-01-19T11:33:31.416Z,99982.19
2019-01-19T11:35:59.562Z,99979.03
2019-01-19T11:38:27.220Z,99978.45
2019-01-19T11:40:56.935Z,99969.16
2019-01-19T11:43:26.730Z,99963.21
2019-01-19T11:45:54.423Z,99958.81
2019-01-19T11:48:25.638Z,99963.17
2019-01-19T11:50:53.735Z,99963.25
2019-01-19T11:53:21.401Z,99963.25
2019-01-19T11:55:52.142Z,99965.52
2019-01-19T11:58:20.366Z,99958.33
2019-01-19T12:00:52.133Z,99955.05
2019-01-19T12:03:20.281Z,99955.05
2019-01-19T12:05:48.502Z,99950.78
2019-01-19T12:08:19.691Z,99950.78
2019-01-19T12:10:47.246Z,99940.05
2019-01-19T12:13:15.396Z,99936.97
2019-01-19T12:15:43.262Z,99936.97
2019-01-19T12:18:11.074Z,99932.39
2019-01-19T12:20:42.250Z,99931.77
2019-01-19T12:23:10.049Z,99929.48
2019-01-19T12:25:37.816Z,99920.78
2019-01-19T12:28:05.858Z,99929.45
2019-01-19T12:30:33.531Z,99923.02
2019-01-19T12:33:04.027Z,99925.73
2019-01-19T12:35:47.628Z,99925.73
2019-01-19T12:38:04.300Z,99922.70
2019-01-19T12:40:34.206Z,99922.70
2019-01-19T12:43:02.394Z,99922.36
2019-01-19T12:45:39.276Z,99920.17
2019-01-19T12:48:07.013Z,99919.30
2019-01-19T12:50:38.187Z,99919.30
2019-01-19T12:53:10.596Z,99921.09
2019-01-19T12:55:38.228Z,99914.14
2019-01-19T12:58:09.192Z,99918.41
2019-01-19T13:00:39.416Z,99918.41
2019-01-19T13:03:10.200Z,99909.27
2019-01-19T13:05:39.538Z,99898.05
2019-01-19T13:08:07.207Z,99898.91
2019-01-19T13:10:37.791Z,99893.48
2019-01-19T13:13:11.618Z,99893.48
2019-01-19T13:15:39.403Z,99883.72
2019-01-19T13:18:12.751Z,99878.86
2019-01-19T13:20:40.782Z,99878.86
2019-01-19T13:23:08.518Z,99875.80
2019-01-19T13:25:39.210Z,99875.80
2019-01-19T13:28:07.311Z,99867.34
2019-01-19T13:30:36.820Z,99867.34
2019-01-19T13:33:06.170Z,99866.30
2019-01-19T13:35:38.329Z,99866.30
2019-01-19T13:38:03.520Z,99860.31
2019-01-19T13:40:31.149Z,99860.31
2019-01-19T13:43:02.070Z,99862.91
2019-01-19T13:45:29.729Z,99862.91
2019-01-19T13:47:57.440Z,99864.88
2019-01-19T13:50:25.489Z,99850.66
2019-01-19T13:52:55.830Z,99846.64
2019-01-19T13:55:22.477Z,99846.64
2019-01-19T13:57:50.434Z,99854.03
2019-01-19T14:00:18.697Z,99856.19
2019-01-19T14:02:53.886Z,99856.19
2019-01-19T14:05:24.432Z,99852.45
2019-01-19T14:07:52.057Z,99852.45
2019-01-19T14:10:21.987Z,99848.20
2019-01-19T14:12:51.563Z,99841.31
2019-01-19T14:15:19.429Z,99850.73
2019-01-19T14:17:49.990Z,99850.73
2019-01-19T14:20:19.550Z,99842.06
2019-01-19T14:22:47.222Z,99838.17
2019-01-19T14:25:18.520Z,99837.89
2019-01-19T14:27:49.680Z,99838.83
2019-01-19T14:30:18.390Z,99838.83
2019-01-19T14:32:47.933Z,99831.95
2019-01-19T14:35:15.864Z,99826.37
2019-01-19T14:40:34.594Z,99820.52
2019-01-19T14:43:02.250Z,99821.39
2019-01-19T14:45:30.057Z,99818.95
2019-01-19T14:48:03.573Z,99813.83
2019-01-19T14:50:32.044Z,99818.86
2019-01-19T14:53:01.608Z,99814.69
2019-01-19T14:55:29.365Z,99814.69
2019-01-19T14:57:57.090Z,99816.38
2019-01-19T15:00:35.153Z,99817.52
2019-01-19T15:03:00.430Z,99813.28
2019-01-19T15:05:30.897Z,99813.28
2019-01-19T15:07:58.888Z,99816.34
2019-01-19T15:10:26.596Z,99814.31
2019-01-19T15:12:54.239Z,99817.87
2019-01-19T15:15:24.099Z,99818.75
2019-01-19T15:17:53.517Z,99818.75
2019-01-19T15:20:21.106Z,99818.12
2019-01-19T15:22:52.021Z,99815.45
2019-01-19T15:25:19.638Z,99815.45
2019-01-19T15:27:49.331Z,99817.92
2019-01-19T15:30:18.097Z,99815.39
2019-01-19T15:32:46.450Z,99817.48
2019-01-19T15:35:14.241Z,99817.48
2019-01-19T15:37:42.309Z,99813.99
2019-01-19T15:40:10.426Z,99812.71
2019-01-19T15:42:40.655Z,99819.57
2019-01-19T15:45:08.721Z,99819.57
2019-01-19T15:50:10.542Z,99817.52
2019-01-19T15:53:02.274Z,99816.38
2019-01-19T15:55:30.035Z,99813.20
2019-01-19T15:57:59.439Z,99816.84
2019-01-19T16:00:27.906Z,99818.30
2019-01-19T16:02:55.509Z,99812.31
2019-01-19T16:05:24.711Z,99814.53
2019-01-19T16:07:52.337Z,99814.53
2019-01-19T16:10:20.111Z,99816.76
2019-01-19T16:12:48.109Z,99815.84
2019-01-19T16:15:36.845Z,99812.16
2019-01-19T16:18:07.248Z,99812.16
2019-01-19T16:20:34.899Z,99812.06
2019-01-19T16:23:02.614Z,99811.00
2019-01-19T16:25:30.639Z,99813.77
2019-01-19T16:28:01.053Z,99820.13
2019-01-19T16:30:28.693Z,99820.13
2019-01-19T16:33:15.169Z,99821.91
2019-01-19T16:35:42.898Z,99819.73
2019-01-19T16:38:12.825Z,99814.34
2019-01-19T16:40:47.800Z,99814.59
2019-01-19T16:43:15.440Z,99808.28
2019-01-19T16:45:43.514Z,99807.06
2019-01-19T16:48:11.931Z,99811.42
2019-01-19T16:50:39.541Z,99811.42
2019-01-19T16:55:44.164Z,99808.66
2019-01-19T16:58:12.284Z,99808.66
2019-01-19T17:00:40.084Z,99812.51
2019-01-19T17:03:26.577Z,99814.91
2019-01-19T17:06:13.822Z,99817.44
2019-01-19T17:08:41.460Z,99820.85
2019-01-19T17:11:29.368Z,99820.85
2019-01-19T17:14:04.809Z,99817.67
2019-01-19T17:16:32.449Z,99817.33
2019-01-19T17:19:02.514Z,99810.63
2019-01-19T17:21:30.191Z,99814.28
2019-01-19T17:24:02.490Z,99812.67
2019-01-19T17:26:29.608Z,99812.67
2019-01-19T17:28:58.501Z,99815.50
2019-01-19T17:31:26.165Z,99813.84
2019-01-19T17:33:54.244Z,99809.13
2019-01-19T17:36:24.221Z,99809.13
2019-01-19T17:39:23.549Z,99811.36
2019-01-19T17:41:30.808Z,99811.36
2019-01-19T17:47:05.291Z,99805.11
2019-01-19T17:49:33.009Z,99806.55
2019-01-19T17:52:01.054Z,99802.32
2019-01-19T17:57:15.503Z,99808.59
2019-01-19T18:02:31.523Z,99798.36
2019-01-19T18:05:02.178Z,99807.19
2019-01-19T18:07:32.774Z,99805.61
2019-01-19T18:10:16.287Z,99803.64
2019-01-19T18:12:31.691Z,99794.38
2019-01-19T18:14:59.373Z,99804.35
2019-01-19T18:17:27.363Z,99798.42
2019-01-19T18:20:18.122Z,99802.02
2019-01-19T18:23:04.619Z,99798.66
2019-01-19T18:25:34.856Z,99795.69
2019-01-19T18:28:02.582Z,99790.70
2019-01-19T18:33:20.396Z,99794.50
2019-01-19T18:35:50.569Z,99794.50
2019-01-19T18:38:18.201Z,99794.50
2019-01-19T18:41:04.833Z,99795.95
2019-01-19T18:43:34.503Z,99793.39
2019-01-19T18:46:02.465Z,99796.91
2019-01-19T18:48:33.199Z,99796.55
2019-01-19T18:51:03.137Z,99804.45
2019-01-19T18:53:31.285Z,99797.64
2019-01-19T18:55:59.282Z,99797.76
2019-01-19T19:01:04.889Z,99797.47
2019-01-19T19:03:32.907Z,99797.55
2019-01-19T19:06:00.632Z,99795.77
2019-01-19T19:08:28.712Z,99800.05
2019-01-19T19:10:56.338Z,99796.48
2019-01-19T19:13:24.402Z,99796.48
2019-01-19T19:18:28.588Z,99801.67
2019-01-19T19:21:15.383Z,99804.06
2019-01-19T19:23:57.493Z,99798.48
2019-01-19T19:26:12.712Z,99803.31
2019-01-19T19:28:40.594Z,99803.31
2019-01-19T19:31:22.265Z,99806.47
2019-01-19T19:33:37.671Z,99806.47
2019-01-19T19:36:27.160Z,99808.20
2019-01-19T19:42:05.422Z,99804.33
2019-01-19T19:44:46.076Z,99794.80
2019-01-19T19:47:06.285Z,99794.80
2019-01-19T19:49:46.931Z,99794.12
2019-01-19T19:54:52.075Z,99798.03
2019-01-19T19:57:19.710Z,99800.78
2019-01-19T19:59:47.442Z,99793.03
2019-01-19T20:02:16.878Z,99798.28
2019-01-19T20:04:46.303Z,99798.28
2019-01-19T20:07:29.307Z,99803.72
2019-01-19T20:10:28.515Z,99802.09
2019-01-19T20:12:42.867Z,99803.49
2019-01-19T20:15:10.949Z,99796.29
2019-01-19T20:17:52.401Z,99804.51
2019-01-19T20:23:03.185Z,99807.22
2019-01-19T20:25:49.707Z,99804.64
2019-01-19T20:28:36.250Z,99804.64
2019-01-19T20:31:04.374Z,99806.70
2019-01-19T20:33:32.271Z,99799.42
2019-01-19T20:36:01.851Z,99805.60
2019-01-19T20:38:31.351Z,99803.50
2019-01-19T20:43:42.080Z,99799.36
2019-01-19T20:46:14.235Z,99803.41
2019-01-19T20:51:47.545Z,99796.50
2019-01-19T20:54:15.352Z,99797.03
2019-01-19T20:57:04.517Z,99799.27
2019-01-19T20:59:33.204Z,99793.29
2019-01-19T21:05:07.039Z,99800.30
2019-01-19T21:07:35.857Z,99800.30
2019-01-19T21:12:38.098Z,99808.44
2019-01-19T21:15:05.731Z,99806.77
2019-01-19T21:17:33.443Z,99804.17
2019-01-19T21:20:22.747Z,99807.23
2019-01-19T21:22:50.422Z,99812.11
2019-01-19T21:25:36.916Z,99813.91
2019-01-19T21:28:04.646Z,99804.80
2019-01-19T21:30:51.150Z,99806.12
2019-01-19T21:36:24.099Z,99800.09
2019-01-19T21:38:52.082Z,99798.81
2019-01-19T21:41:27.115Z,99804.95
2019-01-19T21:43:57.518Z,99804.45
2019-01-19T21:46:46.781Z,99804.45
2019-01-19T21:49:14.470Z,99804.95
2019-01-19T21:54:47.397Z,99807.81
2019-01-19T21:57:16.341Z,99811.81
2019-01-19T21:59:44.067Z,99809.36
2019-01-19T22:02:11.714Z,99816.86
2019-01-19T22:04:54.651Z,99816.86
2019-01-19T22:07:09.489Z,99810.47
2019-01-19T22:09:37.116Z,99815.52
2019-01-19T22:12:09.682Z,99815.64
2019-01-19T22:14:40.466Z,99815.64
2019-01-19T22:20:13.309Z,99820.18
2019-01-19T22:22:59.795Z,99821.97
2019-01-19T22:25:28.080Z,99821.97
2019-01-19T22:27:55.802Z,99825.50
2019-01-19T22:30:25.174Z,99825.50
2019-01-19T22:32:56.364Z,99824.25
2019-01-19T22:38:06.063Z,99824.88
2019-01-19T22:40:54.380Z,99827.14
2019-01-19T22:43:31.758Z,99825.52
2019-01-19T22:45:59.698Z,99826.03
2019-01-19T22:48:42.227Z,99826.13
2019-01-19T22:50:57.581Z,99826.13
2019-01-19T22:53:25.245Z,99821.41
2019-01-19T22:55:53.308Z,99820.16
2019-01-19T23:03:35.284Z,99815.16
2019-01-19T23:06:21.760Z,99814.70
2019-01-19T23:08:49.460Z,99811.27
2019-01-19T23:11:36.089Z,99811.27
2019-01-19T23:16:41.649Z,99808.80
2019-01-19T23:19:09.305Z,99805.80
2019-01-19T23:21:36.997Z,99803.63
2019-01-19T23:24:04.657Z,99803.63
2019-01-19T23:29:20.727Z,99808.88
2019-01-19T23:31:48.418Z,99811.05
2019-01-19T23:34:16.490Z,99816.30
2019-01-19T23:36:44.259Z,99818.52
2019-01-19T23:39:11.974Z,99815.41
2019-01-19T23:41:39.681Z,99814.48
2019-01-19T23:44:26.190Z,99812.78
2019-01-19T23:46:54.268Z,99812.78
2019-01-19T23:49:23.368Z,99807.34
2019-01-19T23:52:09.856Z,99804.83
2019-01-19T23:54:37.596Z,99802.27
2019-01-19T23:57:05.318Z,99799.30
2019-01-19T23:59:32.961Z,99799.30
